Time;durP1;ratioP1;P1;durP2;ratioP2;P2;SDS_P1;SDS_P2;PMS_P1;PMS_P2;Temp;Humidity;BMP_temperature;BMP_pressure;BME280_temperature;BME280_humidity;BME280_pressure;Samples;Min_cycle;Max_cycle;Signal;HPM_P1;HPM_P2
2023/08/11 00:02:05;;;;;;;3.17;2.93;;;26.10;47.10;;;;;;4984215;28;20186;-46
2023/08/11 00:04:31;;;;;;;3.93;3.23;;;26.10;47.20;;;;;;4988730;28;20450;-46
2023/08/11 00:06:56;;;;;;;6.90;3.13;;;26.10;47.20;;;;;;4988644;28;20994;-50
2023/08/11 00:09:23;;;;;;;8.23;3.50;;;26.10;47.20;;;;;;4993852;28;20696;-50
2023/08/11 00:11:50;;;;;;;11.50;3.97;;;26.10;47.10;;;;;;4989065;28;20190;-48
2023/08/11 00:14:16;;;;;;;4.13;3.17;;;25.90;47.50;;;;;;4992973;28;20441;-48
2023/08/11 00:16:41;;;;;;;4.33;3.10;;;25.80;47.90;;;;;;4990060;28;20544;-46
2023/08/11 00:19:07;;;;;;;4.17;3.37;;;25.80;47.90;;;;;;4988485;28;20213;-49
2023/08/11 00:21:32;;;;;;;3.60;3.27;;;25.90;47.80;;;;;;4996245;28;20646;-46
2023/08/11 00:23:58;;;;;;;3.97;3.10;;;25.90;47.70;;;;;;4997311;28;20195;-49
2023/08/11 00:26:24;;;;;;;3.13;2.83;;;25.90;47.60;;;;;;4990751;28;20238;-47
2023/08/11 00:28:50;;;;;;;4.67;3.60;;;25.90;47.70;;;;;;4992549;28;20206;-46
2023/08/11 00:31:16;;;;;;;3.37;3.07;;;25.90;47.80;;;;;;4995920;28;20445;-48
2023/08/11 00:33:46;;;;;;;3.27;2.97;;;25.80;47.80;;;;;;4996199;28;20201;-48
2023/08/11 00:36:13;;;;;;;3.30;3.00;;;25.80;47.80;;;;;;4986353;28;20466;-46
2023/08/11 00:38:39;;;;;;;3.30;2.87;;;25.80;48.00;;;;;;4995501;28;20437;-47
2023/08/11 00:41:06;;;;;;;3.63;3.33;;;25.70;48.10;;;;;;4995281;28;20452;-47
2023/08/11 00:43:32;;;;;;;5.37;3.37;;;25.70;48.10;;;;;;4995579;28;20210;-47
2023/08/11 00:46:10;;;;;;;3.63;3.20;;;25.70;48.20;;;;;;4997515;28;20564;-46
2023/08/11 00:48:40;;;;;;;5.00;3.60;;;25.70;48.30;;;;;;4997639;28;20515;-45
2023/08/11 00:51:06;;;;;;;5.17;3.47;;;25.70;48.40;;;;;;4994028;28;20937;-46
2023/08/11 00:53:35;;;;;;;5.03;3.60;;;25.70;48.20;;;;;;4988359;28;20450;-47
2023/08/11 00:56:03;;;;;;;3.40;3.10;;;25.70;48.70;;;;;;4996087;28;20564;-47
2023/08/11 00:58:30;;;;;;;3.53;3.23;;;25.80;48.10;;;;;;4995329;28;20872;-47
2023/08/11 01:00:59;;;;;;;4.23;3.10;;;25.70;48.10;;;;;;4997087;28;20442;-46
2023/08/11 01:03:25;;;;;;;4.30;3.43;;;25.70;48.20;;;;;;4995355;28;20478;-49
2023/08/11 01:06:28;;;;;;;3.33;3.03;;;25.70;48.20;;;;;;4997742;28;20516;-48
2023/08/11 01:09:27;;;;;;;3.40;3.03;;;25.60;48.10;;;;;;4992027;28;20397;-46
2023/08/11 01:12:32;;;;;;;4.50;3.10;;;25.50;48.50;;;;;;4993728;28;20465;-46
2023/08/11 01:15:16;;;;;;;5.43;2.87;;;25.40;48.60;;;;;;4993926;28;20449;-47
2023/08/11 01:17:43;;;;;;;4.37;2.77;;;25.40;48.80;;;;;;4997525;28;20463;-46
2023/08/11 01:20:11;;;;;;;3.23;2.83;;;25.40;48.80;;;;;;4994168;28;20445;-45
2023/08/11 01:22:40;;;;;;;3.10;2.90;;;25.50;48.70;;;;;;4984253;28;20559;-48
2023/08/11 01:25:08;;;;;;;3.63;2.70;;;25.60;48.60;;;;;;4988419;28;21023;-46
2023/08/11 01:27:44;;;;;;;4.37;2.73;;;25.50;48.60;;;;;;4986943;28;20505;-46
2023/08/11 01:30:11;;;;;;;3.33;3.03;;;25.50;48.70;;;;;;4994939;28;20448;-48
2023/08/11 01:32:38;;;;;;;4.70;3.13;;;25.40;48.50;;;;;;4988687;28;20456;-47
2023/08/11 01:35:05;;;;;;;3.83;3.40;;;25.30;49.10;;;;;;4987315;28;20480;-50
2023/08/11 01:37:31;;;;;;;4.20;3.60;;;25.30;49.10;;;;;;4986116;28;20442;-51
2023/08/11 01:39:57;;;;;;;3.30;3.00;;;25.10;49.30;;;;;;4983843;28;20450;-51
2023/08/11 01:42:23;;;;;;;3.90;3.43;;;24.90;49.90;;;;;;4987024;28;20492;-52
2023/08/11 01:44:49;;;;;;;5.30;3.70;;;24.80;50.20;;;;;;4984172;28;20575;-50
2023/08/11 01:47:16;;;;;;;3.90;3.60;;;24.80;50.00;;;;;;4983815;28;20532;-52
2023/08/11 01:49:42;;;;;;;3.50;3.20;;;24.90;49.90;;;;;;4985960;28;20249;-51
2023/08/11 01:52:08;;;;;;;4.07;3.23;;;25.00;49.90;;;;;;4984576;28;20446;-51
2023/08/11 01:54:34;;;;;;;5.03;2.90;;;25.00;49.80;;;;;;4991855;28;20658;-48
2023/08/11 01:57:00;;;;;;;3.10;2.90;;;25.00;49.60;;;;;;4994577;28;20485;-49
2023/08/11 01:59:26;;;;;;;3.30;3.03;;;25.20;49.50;;;;;;4991785;28;20289;-50
2023/08/11 02:01:52;;;;;;;2.97;2.77;;;25.20;49.40;;;;;;4984652;28;20532;-51
2023/08/11 02:04:17;;;;;;;3.37;3.07;;;25.20;49.20;;;;;;4985074;28;20205;-51
2023/08/11 02:06:45;;;;;;;2.70;2.50;;;25.20;49.00;;;;;;4988139;28;20242;-51
2023/08/11 02:09:12;;;;;;;3.50;3.10;;;25.20;49.20;;;;;;4992131;28;20199;-49
2023/08/11 02:11:39;;;;;;;5.50;3.43;;;25.20;48.80;;;;;;4989830;28;20453;-51
2023/08/11 02:14:05;;;;;;;3.70;2.70;;;25.10;49.00;;;;;;4989951;28;20453;-49
2023/08/11 02:16:31;;;;;;;3.47;3.13;;;25.10;49.20;;;;;;4986535;28;20501;-50
2023/08/11 02:18:57;;;;;;;3.47;3.17;;;24.90;49.40;;;;;;5001173;28;20445;-51
2023/08/11 02:21:22;;;;;;;4.20;3.50;;;24.90;49.80;;;;;;4986724;28;20208;-48
2023/08/11 02:23:48;;;;;;;3.20;2.87;;;24.90;49.60;;;;;;4986506;28;20671;-50
2023/08/11 02:26:15;;;;;;;3.40;3.10;;;24.90;49.80;;;;;;4992394;28;20280;-51
2023/08/11 02:28:41;;;;;;;3.63;3.23;;;24.90;49.70;;;;;;4989809;28;20231;-48
2023/08/11 02:31:08;;;;;;;2.97;2.77;;;24.90;49.80;;;;;;4989123;28;20449;-48
2023/08/11 02:33:34;;;;;;;3.23;3.03;;;24.90;49.50;;;;;;4991476;28;20540;-49
2023/08/11 02:36:00;;;;;;;6.90;2.80;;;24.80;49.70;;;;;;4988091;28;20500;-49
2023/08/11 02:38:25;;;;;;;3.53;3.23;;;24.60;50.10;;;;;;4988362;28;20452;-51
2023/08/11 02:40:51;;;;;;;3.67;3.37;;;24.50;50.30;;;;;;4992674;28;20813;-49
2023/08/11 02:43:17;;;;;;;3.67;3.37;;;24.50;50.60;;;;;;4985651;28;20242;-50
2023/08/11 02:45:43;;;;;;;4.73;3.30;;;24.40;50.50;;;;;;4987292;28;20207;-50
2023/08/11 02:48:08;;;;;;;3.37;3.17;;;24.30;50.90;;;;;;4990271;28;20442;-46
2023/08/11 02:50:34;;;;;;;5.47;3.50;;;24.40;50.70;;;;;;4990241;28;20570;-46
2023/08/11 02:52:59;;;;;;;3.17;2.90;;;24.50;50.30;;;;;;4991969;28;20242;-45
2023/08/11 02:55:25;;;;;;;3.67;3.33;;;24.60;50.40;;;;;;4989331;28;20297;-47
2023/08/11 02:57:51;;;;;;;3.93;3.50;;;24.70;50.10;;;;;;4988920;28;20206;-46
2023/08/11 03:00:17;;;;;;;3.57;3.27;;;24.70;49.80;;;;;;4996785;28;20232;-46
2023/08/11 03:02:46;;;;;;;3.10;2.90;;;24.70;50.00;;;;;;4988631;28;20198;-49
2023/08/11 03:05:14;;;;;;;3.40;3.10;;;24.60;50.00;;;;;;4991340;28;20512;-45
2023/08/11 03:07:41;;;;;;;3.80;3.37;;;24.60;50.20;;;;;;4984075;28;20501;-46
2023/08/11 03:10:09;;;;;;;5.60;3.57;;;24.50;49.50;;;;;;4989008;28;20447;-45
2023/08/11 03:12:36;;;;;;;4.57;3.53;;;24.10;51.30;;;;;;4990185;28;20449;-46
2023/08/11 03:15:05;;;;;;;4.03;3.60;;;24.10;51.20;;;;;;4991865;28;20445;-46
2023/08/11 03:17:31;;;;;;;3.30;3.10;;;24.20;51.10;;;;;;4989300;28;20460;-48
2023/08/11 03:19:57;;;;;;;3.60;3.00;;;24.30;50.80;;;;;;4992503;28;21068;-48
2023/08/11 03:22:22;;;;;;;3.30;3.10;;;24.40;50.60;;;;;;4991373;28;20470;-46
2023/08/11 03:24:48;;;;;;;3.77;3.47;;;24.40;50.50;;;;;;4982989;28;20666;-46
2023/08/11 03:27:17;;;;;;;4.47;3.50;;;24.50;50.30;;;;;;4985692;28;20296;-49
2023/08/11 03:29:43;;;;;;;4.20;3.80;;;24.50;50.00;;;;;;4981358;28;20563;-46
2023/08/11 03:32:09;;;;;;;4.70;4.10;;;24.50;49.40;;;;;;4987918;28;20449;-46
2023/08/11 03:34:34;;;;;;;3.40;3.20;;;24.20;49.70;;;;;;4982094;28;20334;-49
2023/08/11 03:37:00;;;;;;;5.57;3.23;;;24.00;50.20;;;;;;4982331;28;20899;-46
2023/08/11 03:39:26;;;;;;;3.70;3.43;;;23.90;50.50;;;;;;4990121;28;20654;-46
2023/08/11 03:41:52;;;;;;;5.17;3.70;;;23.70;50.60;;;;;;4981411;28;20194;-48
2023/08/11 03:44:18;;;;;;;5.03;3.70;;;23.50;51.10;;;;;;4984359;28;20229;-47
2023/08/11 03:46:43;;;;;;;5.13;3.67;;;23.40;51.50;;;;;;4979825;28;20233;-48
2023/08/11 03:49:09;;;;;;;4.07;3.77;;;23.20;51.70;;;;;;4991600;28;20469;-46
2023/08/11 03:51:35;;;;;;;4.93;3.60;;;23.10;52.40;;;;;;4981718;28;20206;-49
2023/08/11 03:54:02;;;;;;;4.80;3.80;;;23.00;52.40;;;;;;4985021;28;20196;-47
2023/08/11 03:56:28;;;;;;;4.63;3.90;;;23.00;52.20;;;;;;4990598;28;20197;-48
2023/08/11 03:58:54;;;;;;;4.47;4.00;;;22.90;52.20;;;;;;4983289;28;20465;-47
2023/08/11 04:01:20;;;;;;;6.53;3.80;;;22.80;52.40;;;;;;4985604;28;20478;-47
2023/08/11 04:03:46;;;;;;;4.27;3.50;;;22.50;53.30;;;;;;4988134;28;20194;-47
2023/08/11 04:06:11;;;;;;;5.37;4.30;;;22.30;54.20;;;;;;4980688;28;20261;-46
2023/08/11 04:08:37;;;;;;;5.50;4.10;;;22.10;54.40;;;;;;4984589;28;20245;-46
2023/08/11 04:11:02;;;;;;;4.13;3.83;;;22.20;54.20;;;;;;4988615;28;20725;-51
2023/08/11 04:13:28;;;;;;;4.00;3.60;;;22.20;53.90;;;;;;4983172;28;20295;-46
2023/08/11 04:15:53;;;;;;;3.77;3.47;;;22.20;54.30;;;;;;4986219;28;20191;-47
2023/08/11 04:18:19;;;;;;;4.40;4.00;;;22.20;54.00;;;;;;4987079;28;20245;-46
2023/08/11 04:20:46;;;;;;;4.33;4.03;;;22.00;54.20;;;;;;4987306;28;20297;-46
2023/08/11 04:23:13;;;;;;;4.20;3.73;;;21.90;54.90;;;;;;4991211;28;20241;-46
2023/08/11 04:25:38;;;;;;;5.27;3.63;;;22.00;54.90;;;;;;4982101;28;20537;-47
2023/08/11 04:28:04;;;;;;;5.13;4.43;;;22.00;54.90;;;;;;4991926;28;20563;-46
2023/08/11 04:30:30;;;;;;;5.00;3.77;;;22.00;54.70;;;;;;4981831;28;20216;-46
2023/08/11 04:32:55;;;;;;;3.30;3.00;;;21.90;54.90;;;;;;4983251;28;20198;-46
2023/08/11 04:35:21;;;;;;;5.23;4.13;;;21.70;55.70;;;;;;4982148;28;20198;-47
2023/08/11 04:37:47;;;;;;;5.83;4.10;;;21.80;55.50;;;;;;4985886;28;20195;-50
2023/08/11 04:40:13;;;;;;;4.83;4.33;;;21.70;55.60;;;;;;4991011;28;20210;-50
2023/08/11 04:42:40;;;;;;;4.10;3.70;;;21.60;56.10;;;;;;4982807;28;20230;-46
2023/08/11 04:45:06;;;;;;;5.03;4.10;;;21.50;56.40;;;;;;4989234;28;20799;-48
2023/08/11 04:47:32;;;;;;;4.87;4.27;;;21.60;56.30;;;;;;4987401;28;20493;-50
2023/08/11 04:49:57;;;;;;;4.03;3.60;;;21.80;56.00;;;;;;4986162;28;20445;-50
2023/08/11 04:52:23;;;;;;;3.93;3.60;;;21.90;55.60;;;;;;4986455;28;20207;-49
2023/08/11 04:54:49;;;;;;;3.80;3.50;;;22.00;55.40;;;;;;4982183;28;20199;-46
2023/08/11 04:57:14;;;;;;;3.87;3.30;;;22.00;55.20;;;;;;4992720;28;20202;-48
2023/08/11 04:59:40;;;;;;;4.70;4.00;;;21.80;55.40;;;;;;4986095;28;20214;-51
2023/08/11 05:02:07;;;;;;;6.00;3.90;;;21.70;56.20;;;;;;4992384;28;20245;-50
2023/08/11 05:04:33;;;;;;;3.50;3.20;;;21.90;55.80;;;;;;4989803;28;20810;-48
2023/08/11 05:06:59;;;;;;;4.43;3.73;;;22.00;55.40;;;;;;4988813;28;20481;-50
2023/08/11 05:09:24;;;;;;;3.57;3.37;;;22.10;55.60;;;;;;4992539;28;20449;-49
2023/08/11 05:11:50;;;;;;;9.13;3.50;;;22.20;55.30;;;;;;4991568;28;20532;-48
2023/08/11 05:14:17;;;;;;;4.53;3.57;;;22.40;55.00;;;;;;4984921;28;20195;-49
2023/08/11 05:16:44;;;;;;;6.60;3.47;;;22.60;54.60;;;;;;4989464;28;20268;-50
2023/08/11 05:19:10;;;;;;;3.60;3.30;;;22.70;54.10;;;;;;4985407;28;20445;-48
2023/08/11 05:21:37;;;;;;;3.70;3.40;;;22.90;53.80;;;;;;4988958;28;20865;-48
2023/08/11 05:24:03;;;;;;;4.03;3.63;;;23.00;53.40;;;;;;4988887;28;20194;-50
2023/08/11 05:26:29;;;;;;;4.93;3.90;;;23.00;53.30;;;;;;4990395;28;20493;-49
2023/08/11 05:28:55;;;;;;;4.30;3.90;;;23.10;53.40;;;;;;4987735;28;20446;-50
2023/08/11 05:31:20;;;;;;;4.63;4.23;;;23.10;53.20;;;;;;4988864;28;20626;-50
2023/08/11 05:33:46;;;;;;;4.37;3.67;;;23.00;53.50;;;;;;4989257;28;20245;-49
2023/08/11 05:36:11;;;;;;;3.60;3.30;;;23.20;53.30;;;;;;4991663;28;20194;-51
2023/08/11 05:38:38;;;;;;;3.40;3.10;;;23.30;53.10;;;;;;4981618;28;20211;-46
2023/08/11 05:41:04;;;;;;;3.70;3.23;;;23.60;52.40;;;;;;4988422;28;20671;-49
2023/08/11 05:43:29;;;;;;;3.70;3.37;;;23.80;52.10;;;;;;4984570;28;20195;-48
2023/08/11 05:45:55;;;;;;;3.57;3.27;;;23.90;51.70;;;;;;4989230;28;20218;-50
2023/08/11 05:48:21;;;;;;;3.40;3.10;;;24.10;51.60;;;;;;4989541;28;20258;-47
2023/08/11 05:50:46;;;;;;;4.90;3.33;;;24.20;51.30;;;;;;4985571;28;20206;-49
2023/08/11 05:53:12;;;;;;;3.97;3.30;;;24.30;51.30;;;;;;4987543;28;20194;-48
2023/08/11 05:55:38;;;;;;;4.20;3.43;;;24.40;51.00;;;;;;4994294;28;20205;-51
2023/08/11 05:58:04;;;;;;;4.63;3.80;;;24.50;51.00;;;;;;4989525;28;20246;-50
2023/08/11 06:00:30;;;;;;;4.70;3.30;;;24.50;51.00;;;;;;4980317;28;20449;-46
2023/08/11 06:02:55;;;;;;;4.30;3.90;;;24.60;50.60;;;;;;4990622;28;20265;-50
2023/08/11 06:05:24;;;;;;;3.33;3.03;;;24.70;50.60;;;;;;4988948;28;20202;-49
2023/08/11 06:07:50;;;;;;;6.27;3.87;;;24.70;50.60;;;;;;4991978;28;20277;-49
2023/08/11 06:10:15;;;;;;;4.00;3.63;;;24.70;50.70;;;;;;4980480;28;21375;-51
2023/08/11 06:12:41;;;;;;;3.60;3.30;;;24.60;50.90;;;;;;4988534;28;20281;-51
2023/08/11 06:15:07;;;;;;;5.97;3.70;;;24.70;50.70;;;;;;4990253;28;20199;-47
2023/08/11 06:17:32;;;;;;;3.90;3.60;;;24.40;51.00;;;;;;4989386;28;20194;-48
2023/08/11 06:19:58;;;;;;;4.40;3.47;;;23.80;52.60;;;;;;4985525;28;20207;-50
2023/08/11 06:22:24;;;;;;;4.90;3.33;;;24.00;52.60;;;;;;4991516;28;20206;-50
2023/08/11 06:24:50;;;;;;;4.47;3.37;;;24.20;52.20;;;;;;4985762;28;20195;-49
2023/08/11 06:27:15;;;;;;;4.57;3.43;;;24.50;52.10;;;;;;4990104;28;20559;-47
2023/08/11 06:29:41;;;;;;;3.90;3.60;;;24.60;51.60;;;;;;4991941;28;20209;-47
2023/08/11 06:32:07;;;;;;;3.70;3.40;;;24.80;51.30;;;;;;4991412;28;20203;-46
2023/08/11 06:34:33;;;;;;;8.40;3.70;;;24.70;51.20;;;;;;4993538;28;20195;-46
2023/08/11 06:36:58;;;;;;;3.23;3.00;;;24.90;51.00;;;;;;4986027;28;20449;-46
2023/08/11 06:39:24;;;;;;;4.03;3.63;;;25.10;50.50;;;;;;4976127;28;20258;-48
2023/08/11 06:41:49;;;;;;;4.10;3.20;;;25.10;50.50;;;;;;4982290;28;20289;-45
2023/08/11 06:44:15;;;;;;;4.80;3.43;;;25.30;50.40;;;;;;4990985;28;20678;-47
2023/08/11 06:46:40;;;;;;;3.90;3.47;;;25.50;50.20;;;;;;4993497;28;20235;-46
2023/08/11 06:49:06;;;;;;;5.90;3.60;;;25.70;49.90;;;;;;4989625;28;20226;-46
2023/08/11 06:51:32;;;;;;;4.80;3.30;;;25.70;49.80;;;;;;4986110;28;20669;-47
2023/08/11 06:53:58;;;;;;;3.90;3.57;;;25.70;50.20;;;;;;4992278;28;20191;-49
2023/08/11 06:56:23;;;;;;;4.17;3.77;;;25.70;50.40;;;;;;4990802;28;20191;-46
2023/08/11 06:58:49;;;;;;;4.13;3.83;;;25.80;50.20;;;;;;4990323;28;20194;-48
2023/08/11 07:01:18;;;;;;;3.30;3.00;;;25.70;50.10;;;;;;4987817;28;20325;-46
2023/08/11 07:03:47;;;;;;;3.80;3.37;;;25.70;50.20;;;;;;4989508;28;20665;-46
2023/08/11 07:06:13;;;;;;;3.47;3.17;;;25.70;50.20;;;;;;4988162;28;20536;-45
2023/08/11 07:08:39;;;;;;;3.43;3.17;;;25.80;50.60;;;;;;4988811;28;20540;-47
2023/08/11 07:11:05;;;;;;;4.47;3.50;;;25.80;50.30;;;;;;4985630;28;20504;-46
2023/08/11 07:13:31;;;;;;;5.67;3.80;;;25.80;50.10;;;;;;4983526;28;20540;-48
2023/08/11 07:15:57;;;;;;;4.67;3.37;;;25.70;50.50;;;;;;4989973;28;20553;-46
2023/08/11 07:18:23;;;;;;;5.07;3.87;;;25.70;51.00;;;;;;4988589;28;20229;-46
2023/08/11 07:20:49;;;;;;;3.63;3.30;;;25.90;51.10;;;;;;4985838;28;20190;-45
2023/08/11 07:23:16;;;;;;;5.43;3.40;;;25.50;50.90;;;;;;4985665;28;20828;-48
2023/08/11 07:25:42;;;;;;;4.20;3.80;;;25.50;51.10;;;;;;4986787;28;20244;-45
2023/08/11 07:28:08;;;;;;;5.67;3.27;;;25.80;50.30;;;;;;4989267;28;20488;-46
2023/08/11 07:30:35;;;;;;;5.50;3.70;;;26.10;50.20;;;;;;4992427;28;20845;-46
2023/08/11 07:33:02;;;;;;;4.33;3.47;;;26.30;50.00;;;;;;4986850;28;20198;-46
2023/08/11 07:35:28;;;;;;;5.33;3.70;;;26.30;50.20;;;;;;4976447;28;20467;-45
2023/08/11 07:37:53;;;;;;;4.37;3.70;;;26.20;50.80;;;;;;4992985;28;20536;-47
2023/08/11 07:40:19;;;;;;;4.60;4.20;;;26.40;50.10;;;;;;4989709;28;20194;-47
2023/08/11 07:42:45;;;;;;;4.40;3.70;;;26.70;49.50;;;;;;4989688;28;20262;-47
2023/08/11 07:45:10;;;;;;;10.87;4.20;;;26.60;49.30;;;;;;4993351;28;20198;-46
2023/08/11 07:47:36;;;;;;;3.83;3.50;;;26.70;49.60;;;;;;4990477;28;20233;-46
2023/08/11 07:50:02;;;;;;;3.80;3.40;;;27.00;48.90;;;;;;4993137;28;20656;-48
2023/08/11 07:52:27;;;;;;;5.00;3.57;;;27.20;48.90;;;;;;4995798;28;20198;-47
2023/08/11 07:54:53;;;;;;;3.97;3.67;;;27.30;48.80;;;;;;4993081;28;20541;-44
2023/08/11 07:57:19;;;;;;;3.77;3.17;;;27.30;47.90;;;;;;4990206;28;20682;-47
2023/08/11 07:59:44;;;;;;;3.03;2.83;;;27.50;47.60;;;;;;4993299;28;20194;-45
2023/08/11 08:02:12;;;;;;;4.17;3.87;;;27.50;47.40;;;;;;4991497;28;20611;-45
2023/08/11 08:04:38;;;;;;;4.03;3.53;;;27.50;47.90;;;;;;4991062;28;20309;-46
2023/08/11 08:07:04;;;;;;;3.60;3.30;;;27.70;48.30;;;;;;4991705;28;20639;-45
2023/08/11 08:09:33;;;;;;;4.30;4.00;;;27.80;48.00;;;;;;4994910;28;20190;-46
2023/08/11 08:12:00;;;;;;;3.60;3.17;;;28.00;47.80;;;;;;4992493;28;20198;-49
2023/08/11 08:14:26;;;;;;;4.27;3.87;;;28.10;47.20;;;;;;4991249;28;20581;-45
2023/08/11 08:16:52;;;;;;;3.93;3.53;;;28.30;46.70;;;;;;4992436;28;20992;-46
2023/08/11 08:19:20;;;;;;;3.70;3.40;;;28.40;46.00;;;;;;4992764;28;20209;-46
2023/08/11 08:21:46;;;;;;;5.10;3.97;;;28.40;46.40;;;;;;4992521;28;20202;-47
2023/08/11 08:24:14;;;;;;;3.67;3.33;;;28.60;46.00;;;;;;4992095;28;20438;-47
2023/08/11 08:26:40;;;;;;;3.67;3.37;;;28.60;46.30;;;;;;4992292;28;20576;-47
2023/08/11 08:29:06;;;;;;;5.10;4.37;;;28.70;46.70;;;;;;4988507;28;20847;-45
2023/08/11 08:31:32;;;;;;;4.03;3.60;;;28.70;46.20;;;;;;4994678;28;20418;-49
2023/08/11 08:33:58;;;;;;;4.80;4.20;;;28.90;46.10;;;;;;4996805;28;20422;-46
2023/08/11 08:36:24;;;;;;;5.00;3.50;;;29.00;45.00;;;;;;4996244;28;20937;-47
2023/08/11 08:38:49;;;;;;;3.67;3.37;;;29.00;44.90;;;;;;4994854;28;20230;-47
2023/08/11 08:41:19;;;;;;;3.97;3.23;;;29.10;44.90;;;;;;4994535;28;20230;-50
2023/08/11 08:43:50;;;;;;;5.20;3.30;;;29.30;44.50;;;;;;4996735;28;20198;-50
2023/08/11 08:46:19;;;;;;;4.10;3.80;;;29.40;44.60;;;;;;4995663;28;20491;-49
2023/08/11 08:48:58;;;;;;;4.27;3.83;;;29.50;44.20;;;;;;4996362;28;20433;-50
2023/08/11 08:51:24;;;;;;;3.73;3.43;;;29.70;44.00;;;;;;4992437;28;20488;-48
2023/08/11 08:53:50;;;;;;;5.03;3.77;;;29.70;43.40;;;;;;4996454;28;20434;-50
2023/08/11 08:56:16;;;;;;;3.60;3.30;;;29.80;43.20;;;;;;4994027;28;20537;-50
2023/08/11 08:58:43;;;;;;;3.80;3.50;;;29.90;43.50;;;;;;4996601;28;20195;-51
2023/08/11 09:01:09;;;;;;;3.57;3.27;;;30.10;43.60;;;;;;4992772;28;20457;-48
2023/08/11 09:03:36;;;;;;;4.00;3.70;;;30.30;43.20;;;;;;4997135;28;20453;-47
2023/08/11 09:06:05;;;;;;;4.20;3.20;;;30.40;42.60;;;;;;4994145;28;20445;-49
2023/08/11 09:08:32;;;;;;;5.43;2.87;;;30.50;41.50;;;;;;4995618;28;20528;-50
2023/08/11 09:10:57;;;;;;;3.30;3.00;;;30.60;41.80;;;;;;4995724;28;20847;-49
2023/08/11 09:13:25;;;;;;;3.93;3.37;;;30.70;41.20;;;;;;4996228;28;20422;-50
2023/08/11 09:15:51;;;;;;;4.40;3.50;;;30.70;40.40;;;;;;4993316;28;21204;-49
2023/08/11 09:18:17;;;;;;;4.07;3.70;;;30.90;40.50;;;;;;4984773;28;20519;-50
2023/08/11 09:20:46;;;;;;;3.30;3.00;;;31.10;40.70;;;;;;4997514;28;20201;-48
2023/08/11 09:23:11;;;;;;;3.77;3.37;;;31.30;39.00;;;;;;4990314;28;20199;-51
2023/08/11 09:25:37;;;;;;;4.33;3.20;;;31.50;39.70;;;;;;4997060;28;20536;-50
2023/08/11 09:28:03;;;;;;;3.43;3.13;;;31.60;40.30;;;;;;4997964;28;20244;-47
2023/08/11 09:30:32;;;;;;;3.20;2.97;;;31.80;39.40;;;;;;4997058;28;20777;-48
2023/08/11 09:33:01;;;;;;;4.07;2.83;;;31.60;40.30;;;;;;4992262;28;20453;-45
2023/08/11 09:35:27;;;;;;;3.90;3.50;;;31.80;40.00;;;;;;4994776;28;20436;-46
2023/08/11 09:37:54;;;;;;;3.70;3.40;;;31.90;39.70;;;;;;4992310;28;20840;-50
2023/08/11 09:40:24;;;;;;;3.43;3.13;;;31.70;38.90;;;;;;4993786;28;20851;-46
2023/08/11 09:42:53;;;;;;;3.20;2.90;;;31.60;39.90;;;;;;4990641;28;20456;-45
2023/08/11 09:45:19;;;;;;;3.70;3.40;;;31.70;39.70;;;;;;4995301;28;20462;-45
2023/08/11 09:47:44;;;;;;;3.73;3.43;;;31.90;39.10;;;;;;4988842;28;20865;-45
2023/08/11 09:50:11;;;;;;;4.40;4.00;;;32.10;39.60;;;;;;4993449;28;20213;-46
2023/08/11 09:52:38;;;;;;;4.23;3.70;;;32.40;40.30;;;;;;4988667;28;20453;-47
2023/08/11 09:55:06;;;;;;;3.80;3.50;;;32.60;38.60;;;;;;4993805;28;20473;-47
2023/08/11 09:57:36;;;;;;;3.10;2.80;;;32.90;37.80;;;;;;4995255;28;20489;-45
2023/08/11 10:00:03;;;;;;;3.90;3.60;;;33.00;37.50;;;;;;4982400;28;20457;-46
2023/08/11 10:02:31;;;;;;;3.77;3.47;;;33.10;37.30;;;;;;4992111;28;20460;-49
2023/08/11 10:05:02;;;;;;;4.37;3.53;;;33.20;37.10;;;;;;4986396;28;20784;-46
2023/08/11 10:07:34;;;;;;;3.73;3.40;;;33.30;36.90;;;;;;4991752;28;20508;-47
2023/08/11 10:10:05;;;;;;;3.77;3.47;;;33.40;37.10;;;;;;4992880;28;20449;-45
2023/08/11 10:12:32;;;;;;;3.97;3.70;;;33.60;37.60;;;;;;4988889;28;22400;-48
2023/08/11 10:14:59;;;;;;;3.53;3.23;;;33.70;36.80;;;;;;4994315;28;20480;-49
2023/08/11 10:17:25;;;;;;;5.23;3.40;;;33.80;36.00;;;;;;4989038;28;20953;-45
2023/08/11 10:19:51;;;;;;;3.57;3.27;;;33.80;36.20;;;;;;4991139;28;20458;-48
2023/08/11 10:22:17;;;;;;;4.23;3.83;;;33.80;36.10;;;;;;4986834;28;20486;-45
2023/08/11 10:24:43;;;;;;;5.43;3.40;;;33.90;36.40;;;;;;4989251;28;20895;-50
2023/08/11 10:27:09;;;;;;;3.40;3.20;;;34.00;36.20;;;;;;4984015;28;20524;-46
2023/08/11 10:29:37;;;;;;;4.13;3.83;;;34.10;36.00;;;;;;4982643;28;20486;-46
2023/08/11 10:32:03;;;;;;;3.87;3.43;;;34.20;36.50;;;;;;4988343;28;20285;-46
2023/08/11 10:34:29;;;;;;;4.30;3.93;;;34.30;35.50;;;;;;4994528;28;20852;-45
2023/08/11 10:36:57;;;;;;;4.17;3.77;;;34.40;35.90;;;;;;4991331;28;20199;-51
2023/08/11 10:39:23;;;;;;;4.70;3.57;;;34.60;36.60;;;;;;4993582;28;20203;-45
2023/08/11 10:41:49;;;;;;;3.63;3.30;;;34.80;35.50;;;;;;4991680;28;20478;-49
2023/08/11 10:44:20;;;;;;;3.50;3.30;;;34.90;34.70;;;;;;4994647;28;20517;-50
2023/08/11 10:46:47;;;;;;;4.83;3.50;;;35.10;34.60;;;;;;4991896;28;20489;-46
2023/08/11 10:49:13;;;;;;;4.10;3.80;;;35.10;34.50;;;;;;4994201;28;20964;-50
2023/08/11 10:51:39;;;;;;;3.70;3.43;;;35.40;34.70;;;;;;4992511;28;20438;-45
2023/08/11 10:54:11;;;;;;;3.53;3.23;;;35.50;33.70;;;;;;4985654;28;20535;-50
2023/08/11 10:56:36;;;;;;;4.00;3.70;;;35.40;33.90;;;;;;4993643;28;20437;-45
2023/08/11 10:59:15;;;;;;;3.83;3.40;;;35.30;34.20;;;;;;4993903;28;20465;-46
2023/08/11 11:01:46;;;;;;;5.33;3.60;;;35.40;33.60;;;;;;4992942;28;20190;-46
2023/08/11 11:04:13;;;;;;;3.87;3.57;;;35.60;33.70;;;;;;4994087;28;20430;-46
2023/08/11 11:06:40;;;;;;;3.80;3.50;;;35.70;34.20;;;;;;4993463;28;20477;-46
2023/08/11 11:09:09;;;;;;;4.13;3.73;;;35.80;34.10;;;;;;4993787;28;20426;-46
2023/08/11 11:11:39;;;;;;;6.50;4.30;;;36.00;33.60;;;;;;4991246;28;20446;-45
2023/08/11 11:14:09;;;;;;;3.33;3.00;;;36.00;32.70;;;;;;4992257;28;20503;-45
2023/08/11 11:16:36;;;;;;;3.83;3.43;;;36.10;33.20;;;;;;4993577;28;20445;-48
2023/08/11 11:19:03;;;;;;;3.50;3.23;;;36.20;32.10;;;;;;4993217;28;20436;-48
2023/08/11 11:21:29;;;;;;;4.10;3.80;;;36.30;32.90;;;;;;4990719;28;20504;-47
2023/08/11 11:23:55;;;;;;;3.60;3.30;;;36.50;32.70;;;;;;4992114;28;20484;-48
2023/08/11 11:26:25;;;;;;;3.57;3.27;;;36.50;32.10;;;;;;4991266;28;20497;-49
2023/08/11 11:28:52;;;;;;;3.80;3.40;;;36.60;32.50;;;;;;4993448;28;20241;-45
2023/08/11 11:31:19;;;;;;;3.23;3.03;;;36.70;32.10;;;;;;4994571;28;20473;-51
2023/08/11 11:33:46;;;;;;;3.73;3.50;;;36.90;31.50;;;;;;4993445;28;20432;-47
2023/08/11 11:36:12;;;;;;;3.70;3.40;;;37.20;31.70;;;;;;4989174;28;20528;-50
2023/08/11 11:38:39;;;;;;;4.67;4.27;;;37.40;31.60;;;;;;4993013;28;20932;-47
2023/08/11 11:41:10;;;;;;;4.33;3.47;;;37.50;31.30;;;;;;4991076;28;20533;-48
2023/08/11 11:43:36;;;;;;;3.57;3.23;;;37.70;32.30;;;;;;4993472;28;20447;-51
2023/08/11 11:46:01;;;;;;;3.23;2.73;;;37.90;31.20;;;;;;4992515;28;20425;-49
2023/08/11 11:48:27;;;;;;;3.50;3.27;;;37.90;30.60;;;;;;4992270;28;20209;-46
2023/08/11 11:50:53;;;;;;;3.90;3.60;;;38.00;30.40;;;;;;4992654;28;20707;-47
2023/08/11 11:53:21;;;;;;;4.03;3.73;;;38.00;29.60;;;;;;4993244;28;20293;-48
2023/08/11 11:55:47;;;;;;;3.20;3.00;;;37.90;29.40;;;;;;4991713;28;20194;-47
2023/08/11 11:58:16;;;;;;;3.43;3.13;;;38.00;30.50;;;;;;4986924;28;20556;-51
2023/08/11 12:00:44;;;;;;;3.30;3.10;;;38.10;30.70;;;;;;4991766;28;20453;-51
2023/08/11 12:03:10;;;;;;;3.30;3.10;;;38.10;29.30;;;;;;4986326;28;20541;-45
2023/08/11 12:05:36;;;;;;;3.10;2.90;;;38.10;30.10;;;;;;4978979;28;20589;-49
2023/08/11 12:08:19;;;;;;;3.20;2.90;;;38.10;29.50;;;;;;4989275;28;20224;-51
2023/08/11 12:10:46;;;;;;;3.10;2.90;;;38.10;29.80;;;;;;4987466;28;20311;-51
2023/08/11 12:13:12;;;;;;;3.63;3.33;;;38.30;29.70;;;;;;4983698;28;20449;-45
2023/08/11 12:15:38;;;;;;;3.23;3.03;;;38.30;29.30;;;;;;4979240;28;20536;-48
2023/08/11 12:18:05;;;;;;;3.00;2.80;;;38.30;29.40;;;;;;4979073;28;20635;-49
2023/08/11 12:20:31;;;;;;;3.00;2.80;;;38.30;29.20;;;;;;4986790;28;20592;-47
2023/08/11 12:22:56;;;;;;;3.10;2.90;;;38.30;29.10;;;;;;5002158;28;20523;-50
2023/08/11 12:25:23;;;;;;;2.90;2.70;;;38.40;29.80;;;;;;4990741;28;20661;-50
2023/08/11 12:27:49;;;;;;;3.63;3.33;;;38.40;28.60;;;;;;4991850;28;20241;-51
2023/08/11 12:30:15;;;;;;;4.83;3.13;;;38.30;29.30;;;;;;4980821;28;20492;-51
2023/08/11 12:32:41;;;;;;;3.30;3.10;;;38.10;28.80;;;;;;4986430;28;20444;-52
2023/08/11 12:35:11;;;;;;;2.93;2.73;;;37.90;28.70;;;;;;4986825;28;20560;-51
2023/08/11 12:37:37;;;;;;;3.83;3.53;;;37.90;29.20;;;;;;4982652;28;20532;-53
2023/08/11 12:40:03;;;;;;;3.47;3.20;;;37.90;29.30;;;;;;4985567;28;20572;-50
2023/08/11 12:42:29;;;;;;;4.73;3.20;;;37.90;29.60;;;;;;4991886;28;20444;-50
2023/08/11 12:44:54;;;;;;;3.40;3.20;;;38.20;29.50;;;;;;4984253;28;20963;-51
2023/08/11 12:47:21;;;;;;;3.00;2.80;;;38.40;29.30;;;;;;4985806;28;20241;-49